Time;durP1;ratioP1;P1;durP2;ratioP2;P2;SDS_P1;SDS_P2;PMS_P1;PMS_P2;Temp;Humidity;BMP_temperature;BMP_pressure;BME280_temperature;BME280_humidity;BME280_pressure;Samples;Min_cycle;Max_cycle;Signal;HPM_P1;HPM_P2
2022/01/27 00:01:04;;;;;;;36.10;24.05;;;4.60;99.90;;;;;;5018776;28;20136;-48
2022/01/27 00:03:34;;;;;;;35.40;22.02;;;4.70;99.90;;;;;;4960256;28;20042;-46
2022/01/27 00:06:06;;;;;;;36.35;23.58;;;4.60;99.90;;;;;;5012054;28;20088;-51
2022/01/27 00:08:42;;;;;;;33.72;23.55;;;4.70;99.90;;;;;;5012429;28;20041;-50
2022/01/27 00:11:13;;;;;;;35.20;22.40;;;4.70;99.90;;;;;;5012002;28;20553;-53
2022/01/27 00:13:45;;;;;;;31.40;21.70;;;4.60;99.90;;;;;;5012541;28;20133;-50
2022/01/27 00:16:17;;;;;;;34.38;22.92;;;4.60;99.90;;;;;;5012188;28;20037;-49
2022/01/27 00:18:45;;;;;;;32.17;22.08;;;4.70;99.90;;;;;;5012325;28;20429;-50
2022/01/27 00:21:12;;;;;;;32.65;21.58;;;4.70;99.90;;;;;;4994973;28;20037;-49
2022/01/27 00:23:40;;;;;;;31.73;20.60;;;4.70;99.90;;;;;;4975368;28;20059;-49
2022/01/27 00:26:06;;;;;;;32.05;21.50;;;4.70;99.90;;;;;;5019932;28;20116;-48
2022/01/27 00:28:32;;;;;;;33.38;20.17;;;4.70;99.90;;;;;;5000815;28;20082;-49
2022/01/27 00:30:58;;;;;;;28.05;19.63;;;4.70;99.90;;;;;;5001290;28;20049;-52
2022/01/27 00:33:24;;;;;;;31.60;21.02;;;4.70;99.90;;;;;;5012726;28;20503;-50
2022/01/27 00:35:50;;;;;;;30.02;20.65;;;4.70;99.90;;;;;;5025962;28;20071;-52
2022/01/27 00:38:16;;;;;;;30.13;19.55;;;4.70;99.90;;;;;;5061809;28;20035;-48
2022/01/27 00:40:42;;;;;;;28.58;19.98;;;4.80;99.90;;;;;;5028610;28;20060;-46
2022/01/27 00:43:07;;;;;;;31.30;19.30;;;4.70;99.90;;;;;;5063019;28;20051;-50
2022/01/27 00:45:33;;;;;;;30.42;19.23;;;4.60;99.90;;;;;;5065242;28;20063;-55
2022/01/27 00:48:03;;;;;;;28.45;18.58;;;4.70;99.90;;;;;;5060141;28;20127;-45
2022/01/27 00:50:31;;;;;;;29.20;18.92;;;4.70;99.90;;;;;;5073482;28;20464;-48
2022/01/27 00:52:58;;;;;;;25.60;17.48;;;4.80;99.90;;;;;;5054709;28;20532;-51
2022/01/27 00:55:26;;;;;;;26.10;17.45;;;4.80;99.90;;;;;;5073480;28;20036;-53
2022/01/27 01:00:30;;;;;;;26.40;16.55;;;4.90;99.90;;;;;;5073560;28;20039;-46
2022/01/27 01:08:19;;;;;;;27.13;16.92;;;4.80;99.90;;;;;;5072174;28;20035;-50
2022/01/27 01:11:20;;;;;;;25.33;16.45;;;4.80;99.90;;;;;;5030129;28;20040;-48
2022/01/27 01:16:36;;;;;;;26.40;17.50;;;4.90;99.90;;;;;;5073555;28;20043;-47
2022/01/27 01:19:14;;;;;;;25.52;16.83;;;5.00;99.90;;;;;;5054165;28;20048;-47
2022/01/27 01:32:42;;;;;;;21.25;15.05;;;5.10;99.90;;;;;;5072863;28;20144;-50
2022/01/27 01:35:09;;;;;;;22.60;14.90;;;5.10;99.90;;;;;;5073057;28;20032;-52
2022/01/27 01:37:42;;;;;;;22.38;14.77;;;5.20;99.90;;;;;;5073318;28;20032;-53
2022/01/27 01:40:16;;;;;;;21.23;15.13;;;5.20;99.90;;;;;;5072952;28;20052;-46
2022/01/27 01:42:43;;;;;;;23.08;15.52;;;5.20;99.90;;;;;;5073140;28;20028;-48
2022/01/27 01:45:12;;;;;;;22.58;15.75;;;5.30;99.90;;;;;;5072893;28;20376;-51
2022/01/27 01:47:39;;;;;;;20.60;14.88;;;5.40;99.90;;;;;;5038508;28;20411;-50
2022/01/27 01:50:07;;;;;;;23.63;15.77;;;5.40;99.90;;;;;;5077361;28;20024;-47
2022/01/27 01:52:33;;;;;;;25.00;16.52;;;5.40;99.90;;;;;;5027508;28;20048;-48
2022/01/27 01:54:59;;;;;;;24.42;15.23;;;5.50;99.90;;;;;;5079052;28;20430;-47
2022/01/27 01:57:27;;;;;;;22.05;16.15;;;5.50;99.90;;;;;;5078514;28;20048;-48
2022/01/27 01:59:53;;;;;;;21.65;15.07;;;5.50;99.90;;;;;;5079017;28;20029;-49
2022/01/27 02:02:19;;;;;;;23.52;14.93;;;5.50;99.90;;;;;;5059130;28;20035;-50
2022/01/27 02:04:45;;;;;;;20.98;14.52;;;5.60;99.90;;;;;;5076919;28;20085;-49
2022/01/27 02:07:33;;;;;;;20.70;14.45;;;5.60;99.90;;;;;;5014580;28;20496;-51
2022/01/27 02:10:28;;;;;;;21.98;14.82;;;5.70;99.90;;;;;;5014503;28;20118;-49
2022/01/27 02:18:23;;;;;;;21.27;14.52;;;5.60;99.90;;;;;;5014627;28;20033;-52
2022/01/27 02:20:48;;;;;;;21.35;14.27;;;5.60;99.90;;;;;;5014501;28;20022;-53
2022/01/27 02:23:14;;;;;;;21.73;13.48;;;5.60;99.90;;;;;;5014496;28;20073;-46
2022/01/27 02:25:40;;;;;;;19.40;13.73;;;5.50;99.90;;;;;;5014252;28;20374;-48
2022/01/27 02:28:06;;;;;;;21.40;13.88;;;5.70;99.90;;;;;;4998054;28;20088;-49
2022/01/27 02:30:32;;;;;;;21.52;14.27;;;5.70;99.90;;;;;;5014286;28;20029;-46
2022/01/27 02:32:59;;;;;;;20.40;13.35;;;5.60;99.90;;;;;;4964897;28;20046;-49
2022/01/27 02:35:27;;;;;;;18.85;13.05;;;5.60;99.90;;;;;;5014245;28;20029;-49
2022/01/27 02:37:53;;;;;;;19.08;14.15;;;5.70;99.90;;;;;;5037843;28;20388;-45
2022/01/27 02:40:26;;;;;;;20.20;14.10;;;5.70;99.90;;;;;;5075469;28;20036;-49
2022/01/27 02:42:53;;;;;;;19.48;13.45;;;5.70;99.90;;;;;;5076231;28;20046;-48
2022/01/27 02:45:31;;;;;;;22.90;14.35;;;5.60;99.90;;;;;;5075896;28;20032;-50
2022/01/27 02:47:57;;;;;;;21.92;14.68;;;5.70;99.90;;;;;;5075683;28;20049;-48
2022/01/27 02:50:22;;;;;;;19.00;14.40;;;5.70;99.90;;;;;;5024317;28;20426;-49
2022/01/27 02:52:48;;;;;;;20.27;13.25;;;5.70;99.90;;;;;;5075977;28;20549;-52
2022/01/27 02:55:14;;;;;;;19.00;13.82;;;5.70;99.90;;;;;;4991239;28;20043;-51
2022/01/27 02:57:40;;;;;;;18.38;12.57;;;5.80;99.90;;;;;;5040634;28;20457;-49
2022/01/27 03:00:06;;;;;;;20.52;14.48;;;5.80;99.90;;;;;;5075074;28;20115;-52
2022/01/27 03:02:34;;;;;;;21.20;14.82;;;5.90;99.90;;;;;;5040188;28;20464;-53
2022/01/27 03:05:00;;;;;;;20.40;16.60;;;5.90;99.90;;;;;;5075634;28;20065;-48
2022/01/27 03:07:26;;;;;;;26.63;18.88;;;5.80;99.90;;;;;;5075575;28;20106;-51
2022/01/27 03:09:54;;;;;;;21.20;15.80;;;5.90;99.90;;;;;;5075684;28;20029;-48
2022/01/27 03:12:23;;;;;;;20.38;15.73;;;6.00;99.90;;;;;;5075404;28;20036;-51
2022/01/27 03:14:49;;;;;;;22.42;15.63;;;5.90;99.90;;;;;;5075329;28;20044;-50
2022/01/27 03:17:15;;;;;;;19.88;15.32;;;5.90;99.90;;;;;;5075327;28;20046;-47
2022/01/27 03:19:41;;;;;;;19.77;13.43;;;5.90;99.90;;;;;;5007040;28;20439;-51
2022/01/27 03:22:08;;;;;;;20.77;13.15;;;5.90;99.90;;;;;;5075299;28;20033;-51
2022/01/27 03:24:35;;;;;;;20.60;13.05;;;;;;;;;;5074915;28;20044;-48
2022/01/27 03:27:01;;;;;;;19.98;12.85;;;;;;;;;;5075164;28;20430;-54
2022/01/27 03:29:28;;;;;;;18.40;12.23;;;6.10;99.90;;;;;;5074953;28;20047;-50
2022/01/27 03:31:54;;;;;;;20.63;12.77;;;6.10;99.90;;;;;;5056210;28;20036;-50
2022/01/27 03:34:20;;;;;;;17.40;11.80;;;5.90;99.90;;;;;;5039707;28;20396;-48
2022/01/27 03:36:46;;;;;;;18.17;11.88;;;5.90;99.90;;;;;;5056112;28;20040;-47
2022/01/27 03:39:16;;;;;;;18.80;12.38;;;5.90;99.90;;;;;;5022908;28;20404;-52
2022/01/27 03:41:49;;;;;;;18.45;12.63;;;5.90;99.90;;;;;;5074535;28;20040;-52
2022/01/27 03:44:15;;;;;;;21.10;13.30;;;5.90;99.90;;;;;;5074807;28;20127;-50
2022/01/27 03:46:40;;;;;;;21.08;13.32;;;5.90;99.90;;;;;;5006136;28;20044;-52
2022/01/27 03:49:06;;;;;;;21.58;13.30;;;5.90;99.90;;;;;;5039308;28;20048;-49
2022/01/27 03:51:32;;;;;;;16.65;11.48;;;5.90;99.90;;;;;;5074667;28;20560;-49
2022/01/27 03:53:57;;;;;;;15.95;10.95;;;5.90;99.90;;;;;;5074181;28;20052;-53
2022/01/27 03:56:23;;;;;;;17.52;11.43;;;5.80;99.90;;;;;;5075093;28;20033;-52
2022/01/27 03:58:49;;;;;;;18.58;12.07;;;5.80;99.90;;;;;;4990324;28;20090;-47
2022/01/27 04:01:16;;;;;;;16.67;11.75;;;5.90;99.90;;;;;;5074863;28;20445;-45
2022/01/27 04:03:43;;;;;;;19.33;11.82;;;5.70;99.90;;;;;;5074492;28;20039;-48
2022/01/27 04:06:10;;;;;;;19.98;12.30;;;5.70;99.90;;;;;;5074779;28;20440;-49
2022/01/27 04:08:37;;;;;;;16.75;11.57;;;5.80;99.90;;;;;;5074625;28;20040;-49
2022/01/27 04:11:08;;;;;;;16.23;11.45;;;5.90;99.90;;;;;;5073442;28;20037;-49
2022/01/27 04:13:35;;;;;;;20.50;12.75;;;5.90;99.90;;;;;;5074442;28;20032;-45
2022/01/27 04:16:01;;;;;;;23.05;15.95;;;5.90;99.90;;;;;;5074155;28;20040;-46
2022/01/27 04:18:27;;;;;;;18.88;13.23;;;6.00;99.90;;;;;;5074516;28;20028;-47
2022/01/27 04:20:53;;;;;;;33.17;21.33;;;5.90;99.90;;;;;;5074247;28;20578;-51
2022/01/27 04:23:19;;;;;;;19.58;12.38;;;6.00;99.90;;;;;;4966633;28;20057;-46
2022/01/27 04:25:46;;;;;;;18.00;11.65;;;6.00;99.90;;;;;;4966492;28;20044;-46
2022/01/27 04:28:17;;;;;;;18.40;12.52;;;6.00;99.90;;;;;;4998902;28;20033;-44
2022/01/27 04:30:42;;;;;;;18.02;13.20;;;6.00;99.90;;;;;;5031873;28;20453;-53
2022/01/27 04:33:08;;;;;;;24.08;17.45;;;6.00;99.90;;;;;;5031859;28;20103;-46
2022/01/27 04:35:40;;;;;;;18.17;12.75;;;5.80;99.90;;;;;;5015411;28;20045;-51
2022/01/27 04:48:44;;;;;;;26.00;15.55;;;5.90;99.90;;;;;;4992060;28;20053;-51
2022/01/27 04:51:14;;;;;;;17.13;11.90;;;5.90;99.90;;;;;;4985674;28;20458;-49
2022/01/27 04:53:53;;;;;;;23.35;13.73;;;5.70;99.90;;;;;;4995340;28;20061;-48
2022/01/27 04:56:21;;;;;;;18.42;12.52;;;5.70;99.90;;;;;;4997296;28;20042;-50
2022/01/27 04:58:51;;;;;;;17.48;11.13;;;5.70;99.90;;;;;;5011669;28;20156;-49
2022/01/27 05:01:19;;;;;;;17.73;11.48;;;5.70;99.90;;;;;;5007010;28;20041;-47
2022/01/27 05:03:57;;;;;;;15.32;10.77;;;5.60;99.90;;;;;;5000013;28;20093;-45
2022/01/27 05:06:23;;;;;;;28.65;17.55;;;5.60;99.90;;;;;;5008016;28;20049;-46
2022/01/27 05:08:49;;;;;;;52.10;32.20;;;5.90;99.90;;;;;;4993396;28;20038;-50
2022/01/27 05:11:23;;;;;;;42.70;27.45;;;5.90;99.90;;;;;;4942463;28;20467;-45
2022/01/27 05:13:56;;;;;;;24.42;15.68;;;6.00;99.90;;;;;;4961724;28;20523;-51
2022/01/27 05:16:22;;;;;;;23.65;16.42;;;6.00;99.90;;;;;;4991547;28;20403;-52
2022/01/27 05:18:48;;;;;;;18.92;13.20;;;6.00;99.90;;;;;;4991956;28;20146;-47
2022/01/27 05:21:14;;;;;;;19.05;12.57;;;6.00;99.90;;;;;;4961761;28;20518;-47
2022/01/27 05:23:40;;;;;;;28.35;18.33;;;6.00;99.90;;;;;;4962215;28;20046;-51
2022/01/27 05:26:06;;;;;;;120.38;61.17;;;6.10;99.90;;;;;;5053350;28;20043;-51
2022/01/27 05:28:32;;;;;;;28.35;16.75;;;6.10;99.90;;;;;;5004942;28;20460;-46
2022/01/27 05:30:57;;;;;;;25.45;16.05;;;6.10;99.90;;;;;;5072134;28;20044;-44
2022/01/27 05:33:23;;;;;;;17.73;12.05;;;6.10;99.90;;;;;;5065825;28;20044;-53
2022/01/27 05:35:49;;;;;;;17.70;11.07;;;6.10;99.90;;;;;;5060589;28;20033;-49
2022/01/27 05:38:16;;;;;;;16.13;11.52;;;6.20;99.90;;;;;;5026856;28;20082;-48
2022/01/27 05:40:43;;;;;;;17.10;12.68;;;6.20;99.90;;;;;;5025313;28;20048;-50
2022/01/27 05:43:10;;;;;;;19.80;13.73;;;6.20;99.90;;;;;;5062855;28;20090;-47
2022/01/27 05:45:36;;;;;;;20.83;14.73;;;6.20;99.90;;;;;;5066242;28;20468;-46
2022/01/27 05:48:02;;;;;;;26.83;18.02;;;6.10;99.90;;;;;;5062174;28;20119;-53
2022/01/27 05:50:28;;;;;;;20.50;14.40;;;6.20;99.90;;;;;;5060377;28;20372;-46
2022/01/27 05:52:54;;;;;;;21.65;13.65;;;6.20;99.90;;;;;;5060384;28;20033;-47
2022/01/27 05:55:20;;;;;;;18.52;13.63;;;6.10;99.90;;;;;;5063142;28;20049;-50
2022/01/27 05:57:46;;;;;;;17.88;13.05;;;6.10;99.90;;;;;;5063383;28;20141;-51
2022/01/27 06:00:12;;;;;;;18.38;13.65;;;6.10;99.90;;;;;;5060696;28;20096;-46
2022/01/27 06:02:38;;;;;;;22.80;14.13;;;6.10;99.90;;;;;;5060774;28;20059;-48
2022/01/27 06:05:04;;;;;;;22.58;13.70;;;5.90;99.90;;;;;;5029603;28;20040;-51
2022/01/27 06:07:31;;;;;;;21.30;14.38;;;5.80;99.90;;;;;;5071577;28;20036;-50
2022/01/27 06:09:58;;;;;;;25.75;17.42;;;5.80;99.90;;;;;;5071075;28;20036;-48
2022/01/27 06:12:24;;;;;;;31.67;19.02;;;5.80;99.90;;;;;;5033252;28;20404;-52
2022/01/27 06:14:50;;;;;;;54.88;34.20;;;5.70;99.90;;;;;;5050146;28;20656;-46
2022/01/27 06:17:16;;;;;;;61.35;38.45;;;5.80;99.90;;;;;;5062488;28;20021;-49
2022/01/27 06:19:44;;;;;;;55.28;35.15;;;5.80;99.90;;;;;;5051650;28;20029;-49
2022/01/27 06:22:11;;;;;;;58.88;36.50;;;5.60;99.90;;;;;;5053292;28;20028;-50
2022/01/27 06:24:46;;;;;;;53.70;34.28;;;5.60;99.90;;;;;;5062610;28;20029;-52
2022/01/27 06:27:12;;;;;;;51.13;33.58;;;5.70;99.90;;;;;;5059895;28;20037;-49
2022/01/27 06:29:39;;;;;;;62.45;39.92;;;5.60;99.90;;;;;;5026431;28;20063;-50
2022/01/27 06:32:05;;;;;;;41.60;28.92;;;5.50;99.90;;;;;;5025157;28;20041;-47
2022/01/27 06:34:31;;;;;;;42.28;25.48;;;5.60;99.90;;;;;;5042698;28;20187;-48
2022/01/27 06:36:57;;;;;;;43.50;30.17;;;5.60;99.90;;;;;;5070988;28;20123;-48
2022/01/27 06:39:23;;;;;;;45.13;29.58;;;5.70;99.90;;;;;;5074977;28;20025;-50
2022/01/27 06:41:49;;;;;;;49.15;32.42;;;5.70;99.90;;;;;;5023272;28;20040;-47
2022/01/27 06:44:15;;;;;;;46.80;31.23;;;5.70;99.90;;;;;;5071603;28;20110;-50
2022/01/27 06:46:41;;;;;;;46.75;31.75;;;5.80;99.90;;;;;;5063107;28;20084;-47
2022/01/27 06:49:07;;;;;;;40.25;26.73;;;5.80;99.90;;;;;;5074656;28;20507;-50
2022/01/27 06:51:33;;;;;;;34.58;22.02;;;5.90;99.90;;;;;;5074643;28;20041;-49
2022/01/27 06:53:59;;;;;;;26.13;18.05;;;6.10;99.90;;;;;;5056740;28;20048;-50
2022/01/27 06:56:26;;;;;;;23.25;16.17;;;6.10;99.90;;;;;;5012302;28;20041;-46
2022/01/27 06:58:52;;;;;;;25.77;15.63;;;6.10;99.90;;;;;;5012479;28;20045;-53
2022/01/27 07:01:19;;;;;;;20.55;14.00;;;6.10;99.90;;;;;;5012401;28;20046;-49
2022/01/27 07:03:44;;;;;;;19.38;12.98;;;6.00;99.90;;;;;;5012534;28;20069;-47
2022/01/27 07:06:12;;;;;;;19.42;13.77;;;5.90;99.90;;;;;;4994285;28;20115;-53
2022/01/27 07:08:38;;;;;;;25.15;16.88;;;5.90;99.90;;;;;;4996628;28;20506;-50
2022/01/27 07:11:04;;;;;;;27.05;18.27;;;5.80;99.90;;;;;;4992256;28;20528;-51
2022/01/27 07:13:30;;;;;;;30.30;19.98;;;5.80;99.90;;;;;;5007354;28;20077;-51
2022/01/27 07:15:57;;;;;;;43.13;28.42;;;5.80;99.90;;;;;;5012250;28;20049;-47
2022/01/27 07:18:23;;;;;;;47.67;27.50;;;6.00;99.90;;;;;;4973009;28;20502;-49
2022/01/27 07:20:48;;;;;;;39.67;24.42;;;6.10;99.90;;;;;;4940726;28;20410;-47
2022/01/27 07:23:14;;;;;;;26.00;17.98;;;6.00;99.90;;;;;;4973197;28;20042;-52
2022/01/27 07:25:40;;;;;;;40.88;24.67;;;5.60;99.90;;;;;;4972336;28;20043;-45
2022/01/27 07:28:06;;;;;;;49.95;28.15;;;5.70;99.90;;;;;;5003304;28;20391;-50
2022/01/27 07:30:32;;;;;;;45.35;26.88;;;5.70;99.90;;;;;;5011776;28;20077;-49
2022/01/27 07:32:57;;;;;;;44.70;27.35;;;5.90;99.90;;;;;;5012452;28;20209;-45
2022/01/27 07:35:23;;;;;;;46.38;30.73;;;6.00;99.90;;;;;;4963357;28;20038;-48
2022/01/27 07:37:49;;;;;;;51.80;33.15;;;6.10;99.90;;;;;;4963177;28;20100;-51
2022/01/27 07:40:15;;;;;;;54.47;34.88;;;6.20;99.90;;;;;;5011591;28;20092;-49
2022/01/27 07:42:41;;;;;;;52.15;32.80;;;6.30;99.90;;;;;;5011512;28;20471;-48
2022/01/27 07:45:10;;;;;;;50.30;32.38;;;6.40;99.90;;;;;;4991680;28;20034;-50
2022/01/27 07:47:36;;;;;;;50.92;31.48;;;6.50;99.90;;;;;;4982486;28;20053;-48
2022/01/27 07:50:03;;;;;;;37.90;24.67;;;6.50;99.90;;;;;;5000807;28;20073;-50
2022/01/27 07:52:28;;;;;;;105.25;61.38;;;6.40;99.90;;;;;;4985264;28;20050;-51
2022/01/27 07:54:54;;;;;;;60.10;36.95;;;6.40;99.90;;;;;;5016628;28;20124;-46
2022/01/27 07:57:20;;;;;;;45.22;30.63;;;6.50;99.90;;;;;;5064807;28;20075;-47
2022/01/27 07:59:46;;;;;;;113.10;66.03;;;6.50;99.90;;;;;;5018018;28;20037;-49
2022/01/27 08:02:11;;;;;;;165.23;99.40;;;6.70;99.90;;;;;;5053427;28;20389;-50
2022/01/27 08:04:37;;;;;;;258.35;164.93;;;6.80;99.90;;;;;;5026444;28;20081;-48
2022/01/27 08:07:04;;;;;;;241.93;149.35;;;6.80;99.90;;;;;;5060566;28;20037;-51
2022/01/27 08:09:31;;;;;;;174.57;106.65;;;;;;;;;;5057791;28;20036;-44
2022/01/27 08:11:57;;;;;;;129.13;82.70;;;7.20;99.90;;;;;;5055661;28;20159;-49
2022/01/27 08:14:23;;;;;;;76.03;51.42;;;7.10;99.90;;;;;;5053184;28;20124;-44
2022/01/27 08:16:49;;;;;;;62.90;46.53;;;7.20;99.90;;;;;;5057813;28;20032;-49
2022/01/27 08:19:15;;;;;;;73.28;52.13;;;7.30;99.90;;;;;;5060863;28;20097;-46
2022/01/27 08:21:41;;;;;;;101.68;75.93;;;7.50;99.90;;;;;;5066463;28;20036;-46
2022/01/27 08:24:07;;;;;;;74.82;52.58;;;7.60;99.90;;;;;;5064579;28;20509;-55
2022/01/27 08:26:44;;;;;;;69.63;42.20;;;7.60;99.90;;;;;;5042946;28;20044;-43
2022/01/27 08:29:28;;;;;;;77.03;50.97;;;7.50;99.90;;;;;;5062405;28;20108;-48
2022/01/27 08:34:36;;;;;;;42.65;28.95;;;6.90;99.90;;;;;;5061630;28;20048;-48
2022/01/27 08:37:05;;;;;;;32.22;22.80;;;6.50;99.90;;;;;;5061200;28;20086;-47
2022/01/27 08:39:31;;;;;;;34.00;23.52;;;6.30;99.90;;;;;;5060558;28;20159;-48
2022/01/27 08:41:57;;;;;;;32.33;22.67;;;6.30;99.90;;;;;;5063621;28;20119;-46
2022/01/27 08:44:23;;;;;;;34.95;22.52;;;6.30;99.90;;;;;;5062574;28;20385;-48
2022/01/27 08:46:49;;;;;;;32.20;22.58;;;6.20;99.90;;;;;;5040988;28;20039;-48
2022/01/27 08:49:17;;;;;;;30.88;21.20;;;6.30;99.90;;;;;;5060613;28;20171;-49
2022/01/27 08:51:43;;;;;;;31.95;20.63;;;6.30;99.90;;;;;;5064625;28;20040;-47
2022/01/27 08:54:09;;;;;;;27.92;18.67;;;6.30;99.90;;;;;;5072426;28;20051;-47
2022/01/27 08:56:34;;;;;;;27.08;19.15;;;6.30;99.90;;;;;;5072053;28;20476;-45
2022/01/27 08:59:00;;;;;;;25.88;18.40;;;6.30;99.90;;;;;;5072259;28;20086;-47
2022/01/27 09:01:27;;;;;;;25.02;18.75;;;6.30;99.90;;;;;;5072457;28;20029;-43
2022/01/27 09:03:53;;;;;;;27.17;19.52;;;6.30;99.90;;;;;;5072159;28;20115;-45
2022/01/27 09:06:19;;;;;;;29.48;20.02;;;6.70;99.90;;;;;;5036814;28;20484;-45
2022/01/27 09:08:50;;;;;;;24.08;17.25;;;6.90;99.90;;;;;;5053509;28;20531;-52
2022/01/27 09:11:16;;;;;;;25.83;16.80;;;6.50;99.90;;;;;;5053516;28;20095;-49
2022/01/27 09:13:42;;;;;;;25.25;18.00;;;;;;;;;;5017782;28;20049;-45
2022/01/27 09:16:09;;;;;;;26.13;18.27;;;;;;;;;;5054440;28;20037;-49
2022/01/27 09:18:36;;;;;;;22.95;16.70;;;;;;;;;;5061573;28;20074;-45
2022/01/27 09:21:08;;;;;;;22.02;16.10;;;6.10;99.90;;;;;;5063105;28;20071;-47
2022/01/27 09:23:35;;;;;;;22.98;15.63;;;6.10;99.90;;;;;;5061864;28;20432;-49
2022/01/27 09:26:05;;;;;;;22.02;15.30;;;6.10;99.90;;;;;;5061914;28;20052;-52
2022/01/27 09:28:31;;;;;;;26.63;17.27;;;6.30;99.90;;;;;;5030464;28;20488;-45
2022/01/27 09:30:57;;;;;;;26.00;19.02;;;6.70;99.90;;;;;;5070530;28;20037;-44
2022/01/27 09:33:24;;;;;;;25.73;20.02;;;;;;;;;;5016334;28;20053;-53
2022/01/27 09:35:50;;;;;;;22.00;16.15;;;9.90;99.90;;;;;;5051829;28;20074;-53
2022/01/27 09:38:16;;;;;;;23.60;19.10;;;10.50;99.90;;;;;;5060655;28;20123;-53
2022/01/27 09:40:46;;;;;;;25.10;18.40;;;11.70;99.90;;;;;;5071845;28;20033;-48
2022/01/27 09:43:13;;;;;;;21.10;16.58;;;12.70;99.90;;;;;;5071875;28;20037;-53
2022/01/27 09:45:39;;;;;;;26.05;21.80;;;13.40;96.20;;;;;;5071640;28;20491;-48
2022/01/27 09:48:16;;;;;;;26.23;18.17;;;;;;;;;;5067176;28;20044;-51
2022/01/27 09:51:00;;;;;;;19.75;12.15;;;16.70;91.90;;;;;;5071795;28;20064;-47
2022/01/27 09:53:26;;;;;;;23.80;14.65;;;17.50;84.20;;;;;;5009537;28;20042;-53
2022/01/27 09:55:52;;;;;;;27.45;16.23;;;17.30;80.90;;;;;;5009685;28;20034;-52
2022/01/27 09:58:17;;;;;;;22.25;17.35;;;17.90;81.30;;;;;;5009749;28;20038;-49
2022/01/27 10:00:43;;;;;;;18.00;15.23;;;16.20;79.40;;;;;;5009194;28;20045;-50
2022/01/27 10:03:14;;;;;;;15.18;11.38;;;17.00;80.20;;;;;;4976638;28;20030;-47
2022/01/27 10:05:41;;;;;;;25.08;17.77;;;16.50;79.10;;;;;;5009583;28;20026;-48
2022/01/27 10:08:17;;;;;;;16.88;12.43;;;16.10;78.30;;;;;;5011164;28;20065;-49
2022/01/27 10:10:50;;;;;;;16.88;11.65;;;14.60;78.50;;;;;;5014408;28;20429;-46
2022/01/27 10:13:30;;;;;;;21.45;14.38;;;13.40;80.20;;;;;;5014737;28;20045;-50
2022/01/27 10:15:56;;;;;;;22.77;15.45;;;14.60;82.80;;;;;;5013025;28;20046;-49
2022/01/27 10:18:27;;;;;;;25.45;17.23;;;15.80;80.80;;;;;;4972219;28;20046;-51
2022/01/27 10:21:00;;;;;;;22.88;15.15;;;16.60;79.30;;;;;;4994723;28;20084;-51
2022/01/27 10:23:30;;;;;;;25.75;15.25;;;17.30;77.40;;;;;;5007154;28;20029;-48
2022/01/27 10:26:07;;;;;;;16.83;14.10;;;;;;;;;;5056512;28;20036;-52
2022/01/27 10:28:49;;;;;;;17.38;13.98;;;17.40;76.30;;;;;;5056473;28;20537;-48
2022/01/27 10:31:24;;;;;;;18.73;13.95;;;17.60;76.00;;;;;;5055701;28;20033;-52
2022/01/27 10:34:05;;;;;;;21.50;16.63;;;16.60;75.20;;;;;;5056317;28;20048;-50
2022/01/27 10:36:32;;;;;;;18.77;14.15;;;15.10;77.10;;;;;;5056318;28;20373;-47
2022/01/27 10:39:05;;;;;;;19.23;14.13;;;15.70;77.90;;;;;;5056354;28;20112;-47
2022/01/27 10:41:33;;;;;;;17.25;13.40;;;15.80;78.10;;;;;;5056167;28;20032;-53
2022/01/27 10:44:08;;;;;;;18.50;13.82;;;14.80;77.00;;;;;;5056355;28;20025;-50
2022/01/27 10:46:34;;;;;;;16.02;13.18;;;14.90;77.00;;;;;;5055980;28;20115;-50
2022/01/27 10:49:11;;;;;;;17.30;13.60;;;15.10;77.20;;;;;;5055945;28;20394;-47
2022/01/27 10:51:43;;;;;;;30.48;23.20;;;15.40;76.90;;;;;;5055845;28;20108;-48
2022/01/27 10:54:27;;;;;;;18.77;14.27;;;16.10;77.40;;;;;;5055102;28;20087;-51
2022/01/27 10:56:53;;;;;;;18.05;14.00;;;15.40;78.20;;;;;;5040652;28;20056;-47
2022/01/27 10:59:20;;;;;;;17.88;13.95;;;15.40;78.00;;;;;;5020883;28;20122;-50
2022/01/27 11:01:48;;;;;;;18.70;13.35;;;16.00;77.80;;;;;;5019754;28;20040;-56
2022/01/27 11:04:15;;;;;;;18.95;15.88;;;15.50;76.30;;;;;;5055616;28;20029;-46
2022/01/27 11:07:00;;;;;;;17.67;14.25;;;15.80;77.40;;;;;;5039561;28;20484;-42
2022/01/27 11:09:27;;;;;;;15.88;13.48;;;15.80;77.90;;;;;;5075620;28;20437;-45
2022/01/27 11:11:56;;;;;;;17.88;14.45;;;15.60;76.60;;;;;;5075709;28;20105;-47
2022/01/27 11:14:25;;;;;;;26.73;19.10;;;15.80;77.20;;;;;;5035206;28;20443;-49
2022/01/27 11:16:56;;;;;;;19.83;15.32;;;16.30;76.20;;;;;;5073283;28;20037;-42
2022/01/27 11:27:28;;;;;;;18.87;11.30;;;12.50;82.10;;;;;;4988980;28;20407;-53
2022/01/27 11:30:00;;;;;;;16.80;12.35;;;11.70;82.50;;;;;;4976875;28;20149;-51
2022/01/27 11:32:39;;;;;;;16.60;9.95;;;11.40;84.30;;;;;;4973163;28;20054;-52
2022/01/27 11:35:21;;;;;;;17.65;11.70;;;10.30;87.10;;;;;;4972856;28;20041;-53
2022/01/27 11:37:55;;;;;;;16.73;12.80;;;9.90;88.00;;;;;;4972800;28;20054;-52
2022/01/27 11:40:43;;;;;;;19.17;13.77;;;10.50;87.40;;;;;;4987200;28;20035;-56
2022/01/27 11:43:14;;;;;;;21.02;16.42;;;11.00;87.10;;;;;;4992070;28;20038;-52
2022/01/27 11:45:48;;;;;;;23.88;16.85;;;11.40;87.00;;;;;;4985852;28;20403;-52
2022/01/27 11:48:23;;;;;;;22.50;17.55;;;12.50;86.50;;;;;;4983047;28;20507;-51
2022/01/27 11:50:54;;;;;;;20.48;16.70;;;13.60;85.80;;;;;;4981601;28;20035;-49
2022/01/27 11:53:45;;;;;;;18.73;15.50;;;13.90;82.00;;;;;;4981262;28;20046;-49
2022/01/27 11:56:23;;;;;;;23.95;19.65;;;13.90;81.90;;;;;;4973588;28;20039;-50
2022/01/27 11:58:51;;;;;;;20.00;14.75;;;14.70;82.10;;;;;;4986153;28;20492;-51
2022/01/27 12:01:18;;;;;;;18.00;14.57;;;13.60;80.80;;;;;;4987417;28;20026;-46
2022/01/27 12:04:02;;;;;;;14.80;13.23;;;12.40;82.60;;;;;;4974977;28;20644;-50
2022/01/27 12:06:32;;;;;;;22.23;15.50;;;12.10;84.00;;;;;;5040598;28;20108;-50
2022/01/27 12:09:21;;;;;;;21.25;16.38;;;12.10;85.10;;;;;;5039511;28;20033;-50
2022/01/27 12:11:57;;;;;;;21.40;14.23;;;13.50;84.70;;;;;;5046372;28;20040;-51
2022/01/27 12:14:32;;;;;;;20.00;13.60;;;13.40;83.90;;;;;;5035337;28;20052;-48
2022/01/27 12:17:09;;;;;;;15.20;11.35;;;12.80;83.40;;;;;;5050555;28;20477;-52
2022/01/27 12:19:57;;;;;;;19.85;13.43;;;11.90;84.40;;;;;;5050661;28;20128;-50
2022/01/27 12:22:26;;;;;;;15.32;10.90;;;11.60;87.10;;;;;;5050645;28;20171;-51
2022/01/27 12:25:00;;;;;;;16.13;10.32;;;11.00;87.00;;;;;;5046394;28;20123;-51
2022/01/27 12:27:28;;;;;;;21.73;15.18;;;11.20;88.10;;;;;;5043443;28;20064;-51
2022/01/27 12:29:57;;;;;;;18.10;13.45;;;12.00;87.50;;;;;;5030391;28;20482;-48
2022/01/27 12:32:26;;;;;;;20.55;14.35;;;11.60;87.00;;;;;;5039884;28;20035;-48
2022/01/27 12:35:09;;;;;;;17.92;12.27;;;11.90;86.70;;;;;;5055138;28;20036;-53
2022/01/27 12:37:37;;;;;;;14.60;8.07;;;10.70;87.00;;;;;;5017886;28;20048;-49
2022/01/27 12:40:09;;;;;;;21.98;14.30;;;9.80;89.20;;;;;;5058323;28;20486;-49
2022/01/27 12:42:37;;;;;;;20.20;12.27;;;10.10;90.60;;;;;;5057871;28;20024;-51
2022/01/27 12:45:08;;;;;;;25.27;15.52;;;10.40;90.40;;;;;;5052661;28;20041;-52
2022/01/27 12:47:42;;;;;;;21.88;15.32;;;10.80;90.20;;;;;;5017358;28;20041;-49
2022/01/27 12:50:14;;;;;;;25.15;15.20;;;10.70;89.60;;;;;;5065615;28;20035;-51
2022/01/27 12:52:43;;;;;;;27.02;16.83;;;10.40;89.40;;;;;;5072357;28;20062;-54
2022/01/27 12:55:19;;;;;;;22.60;13.82;;;10.10;90.40;;;;;;5072349;28;20036;-47
2022/01/27 12:57:54;;;;;;;25.50;16.77;;;9.80;90.50;;;;;;5072620;28;20029;-49
2022/01/27 13:00:20;;;;;;;17.52;9.63;;;10.00;90.90;;;;;;5036869;28;20121;-51
2022/01/27 13:02:45;;;;;;;26.13;17.23;;;9.80;90.60;;;;;;5037025;28;20067;-49
2022/01/27 13:05:11;;;;;;;20.88;14.52;;;9.40;91.70;;;;;;5020447;28;20039;-48
2022/01/27 13:07:38;;;;;;;24.13;15.20;;;9.10;92.10;;;;;;5020466;28;20036;-50
2022/01/27 13:10:09;;;;;;;22.75;13.18;;;8.90;92.30;;;;;;5072218;28;20121;-51
2022/01/27 13:12:57;;;;;;;24.60;15.40;;;8.60;92.60;;;;;;5021957;28;20045;-49
2022/01/27 13:15:26;;;;;;;22.38;13.35;;;8.40;93.40;;;;;;5072388;28;20047;-49
2022/01/27 13:20:32;;;;;;;24.42;13.50;;;8.30;93.60;;;;;;5071982;28;20068;-50
2022/01/27 13:23:12;;;;;;;31.13;19.42;;;8.20;93.80;;;;;;5072054;28;20082;-50
2022/01/27 13:25:43;;;;;;;29.73;19.85;;;8.10;94.30;;;;;;5072545;28;20388;-48
2022/01/27 13:28:15;;;;;;;25.05;17.33;;;8.30;94.20;;;;;;5073186;28;20032;-48
2022/01/27 13:30:41;;;;;;;29.98;19.20;;;8.40;94.30;;;;;;5070602;28;20130;-50
2022/01/27 13:33:13;;;;;;;26.40;17.80;;;8.40;94.30;;;;;;5073153;28;20334;-53
2022/01/27 13:35:39;;;;;;;32.72;20.42;;;8.60;94.40;;;;;;5066464;28;20384;-53